Stations météo

réclame
Mon MeteoGroup
Mannheim City Airport, Allemagne (10730): Température de l'air & dewpoint: 11.02.2019 15:00:00 - 17.02.2019 15:00:00 (CET)Mannheim City Airport, Allemagne (10730): Vitesse du vent: 11.02.2019 15:00:00 - 17.02.2019 15:00:00 (CET)Mannheim City Airport, Allemagne (10730): Direction du vent: 11.02.2019 15:00:00 - 17.02.2019 15:00:00 (CET)Mannheim City Airport, Allemagne (10730): visibility: 11.02.2019 15:00:00 - 17.02.2019 15:00:00 (CET)
Date & Time tt [°C] td [°C] ff [km/h] ff [knt] dd vv [km]
17.02.2019 15:00:00 16,0 0,0 11 6 S 10
17.02.2019 14:00:00 15,0 2,0 11 6 SSW 10
17.02.2019 13:00:00 12,0 2,0 9 5 SSW 10
17.02.2019 12:00:00 11,0 1,0 13 7 S 10
17.02.2019 11:00:00 9,0 1,0 8 4 SSE 10
17.02.2019 10:00:00 5,0 1,0 5 3 - 10
17.02.2019 09:00:00 0,0 0,0 4 2 - 10
17.02.2019 08:00:00 -2,0 -3,0 2 1 E 9
17.02.2019 07:00:00 - - - - - -
17.02.2019 06:00:00 - - - - - -
17.02.2019 05:00:00 - - - - - -
17.02.2019 04:00:00 - - - - - -
17.02.2019 03:00:00 - - - - - -
17.02.2019 02:00:00 - - - - - -
17.02.2019 01:00:00 - - - - - -
17.02.2019 00:00:00 - - - - - -
16.02.2019 23:00:00 - - - - - -
16.02.2019 22:00:00 - - - - - -
16.02.2019 21:00:00 5,0 1,0 2 1 - 10
16.02.2019 20:00:00 5,0 0,0 2 1 - 10
16.02.2019 19:00:00 7,0 1,0 4 2 WNW 10
16.02.2019 18:00:00 12,0 1,0 2 1 SSE 10
16.02.2019 17:00:00 15,0 1,0 5 3 - 10
16.02.2019 16:00:00 15,0 0,0 8 4 S 10
16.02.2019 15:00:00 14,0 1,0 8 4 S 10
16.02.2019 14:00:00 13,0 1,0 9 5 S 10
16.02.2019 13:00:00 11,0 1,0 13 7 SSE 10
16.02.2019 12:00:00 10,0 0,0 11 6 S 10
16.02.2019 11:00:00 8,0 1,0 9 5 SSE 10
16.02.2019 10:00:00 5,0 0,0 5 3 SSE 10
16.02.2019 09:00:00 0,0 0,0 2 1 - 10
16.02.2019 08:00:00 -2,0 -3,0 0 0 N 10
16.02.2019 07:00:00 - - - - - -
16.02.2019 06:00:00 - - - - - -
16.02.2019 05:00:00 - - - - - -
16.02.2019 04:00:00 - - - - - -
16.02.2019 03:00:00 - - - - - -
16.02.2019 02:00:00 - - - - - -
16.02.2019 01:00:00 - - - - - -
16.02.2019 00:00:00 - - - - - -
15.02.2019 23:00:00 - - - - - -
15.02.2019 22:00:00 - - - - - -
15.02.2019 21:00:00 4,0 2,0 0 0 N 10
15.02.2019 20:00:00 6,0 2,0 2 1 - 10
15.02.2019 19:00:00 7,0 2,0 0 0 N 10
15.02.2019 18:00:00 11,0 3,0 2 1 - 10
15.02.2019 17:00:00 15,0 1,0 0 0 N 10
15.02.2019 16:00:00 14,0 0,0 4 2 - 10
15.02.2019 15:00:00 13,0 0,0 4 2 - 10
15.02.2019 14:00:00 12,0 0,0 4 2 - 10
15.02.2019 13:00:00 10,0 1,0 4 2 - 10
15.02.2019 12:00:00 8,0 0,0 5 3 - 10
15.02.2019 11:00:00 5,0 1,0 4 2 - 10
15.02.2019 10:00:00 3,0 0,0 5 3 NNE 10
15.02.2019 09:00:00 2,0 1,0 2 1 N 10
15.02.2019 08:00:00 -1,0 -1,0 2 1 - 10
15.02.2019 07:00:00 -2,0 -2,0 4 2 N 7
15.02.2019 06:00:00 -1,0 -1,0 2 1 - 10
15.02.2019 05:00:00 - - - - - -
15.02.2019 04:00:00 - - - - - -
15.02.2019 03:00:00 - - - - - -
15.02.2019 02:00:00 - - - - - -
15.02.2019 01:00:00 - - - - - -
15.02.2019 00:00:00 - - - - - -
14.02.2019 23:00:00 - - - - - -
14.02.2019 22:00:00 - - - - - -
14.02.2019 21:00:00 - - - - - -
14.02.2019 20:00:00 2,0 0,0 4 2 WNW 10
14.02.2019 19:00:00 4,0 0,0 4 2 NNW 10
14.02.2019 18:00:00 7,0 1,0 5 3 N 10
14.02.2019 17:00:00 9,0 1,0 8 4 N 10
14.02.2019 16:00:00 10,0 1,0 4 2 - 10
14.02.2019 15:00:00 10,0 0,0 0 0 N 10
14.02.2019 14:00:00 9,0 1,0 2 1 - 10
14.02.2019 13:00:00 7,0 0,0 4 2 - 10
14.02.2019 12:00:00 5,0 0,0 5 3 - 10
14.02.2019 11:00:00 4,0 0,0 4 2 - 10
14.02.2019 10:00:00 1,0 -1,0 0 0 N 10
14.02.2019 09:00:00 -1,0 -1,0 2 1 NE 10
14.02.2019 08:00:00 -2,0 -3,0 0 0 N 10
14.02.2019 07:00:00 -3,0 -3,0 0 0 N 10
14.02.2019 06:00:00 -2,0 -3,0 4 2 SE 10
14.02.2019 05:00:00 - - - - - -
14.02.2019 04:00:00 - - - - - -
14.02.2019 03:00:00 - - - - - -
14.02.2019 02:00:00 - - - - - -
14.02.2019 01:00:00 - - - - - -
14.02.2019 00:00:00 - - - - - -
13.02.2019 23:00:00 0,0 -1,0 0 0 N 10
13.02.2019 22:00:00 1,0 -2,0 0 0 N 10
13.02.2019 21:00:00 3,0 -1,0 0 0 N 10
13.02.2019 20:00:00 4,0 -1,0 0 0 N 10
13.02.2019 19:00:00 5,0 -1,0 0 0 N 10
13.02.2019 18:00:00 8,0 0,0 4 2 - 10
13.02.2019 17:00:00 10,0 -1,0 4 2 - 10
13.02.2019 16:00:00 10,0 -1,0 4 2 - 10
13.02.2019 15:00:00 10,0 -1,0 2 1 - 10
13.02.2019 14:00:00 9,0 -1,0 5 3 - 10
13.02.2019 13:00:00 8,0 0,0 2 1 - 10
13.02.2019 12:00:00 6,0 -1,0 5 3 - 10
13.02.2019 11:00:00 5,0 -1,0 4 2 - 10
13.02.2019 10:00:00 3,0 -1,0 4 2 - 10
13.02.2019 09:00:00 1,0 -2,0 5 3 - 10
13.02.2019 08:00:00 -1,0 -2,0 4 2 - 10
13.02.2019 07:00:00 0,0 -2,0 2 1 - 10
13.02.2019 06:00:00 -2,0 -3,0 5 3 S 10
13.02.2019 05:00:00 - - - - - -
13.02.2019 04:00:00 - - - - - -
13.02.2019 03:00:00 - - - - - -
13.02.2019 02:00:00 - - - - - -
13.02.2019 01:00:00 - - - - - -
13.02.2019 00:00:00 - - - - - -
12.02.2019 23:00:00 - - - - - -
12.02.2019 22:00:00 - - - - - -
12.02.2019 21:00:00 4,0 0,0 4 2 - 10
12.02.2019 20:00:00 6,0 0,0 8 4 SW 10
12.02.2019 19:00:00 6,0 0,0 8 4 SSW 10
12.02.2019 18:00:00 7,0 -1,0 8 4 SSW 10
12.02.2019 17:00:00 7,0 -2,0 8 4 SW 10
12.02.2019 16:00:00 7,0 -3,0 9 5 W 10
12.02.2019 15:00:00 7,0 -2,0 9 5 WNW 10
12.02.2019 14:00:00 7,0 -1,0 13 7 NW 10
12.02.2019 13:00:00 6,0 -1,0 13 7 NW 10
12.02.2019 12:00:00 6,0 -1,0 13 7 W 10
12.02.2019 11:00:00 5,0 -1,0 15 8 W 10
12.02.2019 10:00:00 4,0 0,0 13 7 W 10
12.02.2019 09:00:00 3,0 0,0 11 6 W 10
12.02.2019 08:00:00 3,0 0,0 11 6 W 10
12.02.2019 07:00:00 3,0 0,0 11 6 W 10
12.02.2019 06:00:00 4,0 0,0 13 7 W 10
12.02.2019 05:00:00 - - - - - -
12.02.2019 04:00:00 - - - - - -
12.02.2019 03:00:00 3,0 0,0 9 5 WSW 10
12.02.2019 02:00:00 - - - - - -
12.02.2019 01:00:00 - - - - - -
12.02.2019 00:00:00 - - - - - -
11.02.2019 23:00:00 - - - - - -
11.02.2019 22:00:00 - - - - - -
11.02.2019 21:00:00 5,0 2,0 8 4 W 10
11.02.2019 20:00:00 6,0 2,0 16 9 WNW 10
11.02.2019 19:00:00 7,0 2,0 13 7 WSW 10
11.02.2019 18:00:00 8,0 0,0 15 8 W 10
11.02.2019 17:00:00 7,0 1,0 15 8 WSW 10
11.02.2019 16:00:00 7,0 1,0 16 9 WSW 10
11.02.2019 15:00:00 7,0 1,0 11 6 W 10

tt = Température de l'air
td = dewpoint
ff = Vitesse du vent
dd = Direction du vent
vv = visibility

stations d'obs. à proximité